createdAt,value
2023-03-25T00:00:33.418Z,99.90
2023-03-25T00:03:05.023Z,99.90
2023-03-25T00:05:34.789Z,99.90
2023-03-25T00:08:09.126Z,99.90
2023-03-25T00:10:39.840Z,99.90
2023-03-25T00:13:14.068Z,99.90
2023-03-25T00:15:47.647Z,99.90
2023-03-25T00:18:18.905Z,99.90
2023-03-25T00:20:50.456Z,99.90
2023-03-25T00:23:24.870Z,99.90
2023-03-25T00:26:00.749Z,99.90
2023-03-25T00:28:34.329Z,99.90
2023-03-25T00:31:06.814Z,99.90
2023-03-25T00:33:37.336Z,99.90
2023-03-25T00:36:08.185Z,99.90
2023-03-25T00:38:39.720Z,99.90
2023-03-25T00:41:18.043Z,99.90
2023-03-25T00:43:49.588Z,99.90
2023-03-25T00:46:23.225Z,99.90
2023-03-25T00:48:53.416Z,99.90
2023-03-25T00:51:24.868Z,99.90
2023-03-25T00:53:56.501Z,99.90
2023-03-25T00:56:27.208Z,99.90
2023-03-25T00:58:59.406Z,99.90
2023-03-25T01:01:30.378Z,99.90
2023-03-25T01:04:01.635Z,99.90
2023-03-25T01:06:35.934Z,99.90
2023-03-25T01:09:09.726Z,99.90
2023-03-25T01:11:40.353Z,99.90
2023-03-25T01:14:17.239Z,99.90
2023-03-25T01:16:47.771Z,99.90
2023-03-25T01:19:17.902Z,99.90
2023-03-25T01:21:47.904Z,99.90
2023-03-25T01:24:18.697Z,99.90
2023-03-25T01:26:49.186Z,99.90
2023-03-25T01:29:23.716Z,99.90
2023-03-25T01:31:54.220Z,99.90
2023-03-25T01:34:25.141Z,99.90
2023-03-25T01:36:57.125Z,99.90
2023-03-25T01:39:27.352Z,99.90
2023-03-25T01:41:57.949Z,99.90
2023-03-25T01:45:19.986Z,99.90
2023-03-25T01:47:55.481Z,99.90
2023-03-25T01:50:29.642Z,99.90
2023-03-25T01:53:01.718Z,99.90
2023-03-25T01:55:37.999Z,99.90
2023-03-25T01:58:13.328Z,99.90
2023-03-25T02:00:46.068Z,99.90
2023-03-25T02:03:19.452Z,99.90
2023-03-25T02:05:58.117Z,99.90
2023-03-25T02:08:28.649Z,99.90
2023-03-25T02:11:00.113Z,99.90
2023-03-25T02:13:30.415Z,99.90
2023-03-25T02:16:14.895Z,99.90
2023-03-25T02:18:57.402Z,99.90
2023-03-25T02:22:15.125Z,99.90
2023-03-25T02:25:20.154Z,99.90
2023-03-25T02:28:04.400Z,99.90
2023-03-25T02:31:09.745Z,99.90
2023-03-25T02:34:24.103Z,99.90
2023-03-25T02:37:28.734Z,99.90
2023-03-25T02:40:07.653Z,99.90
2023-03-25T02:42:43.219Z,99.90
2023-03-25T02:45:17.828Z,99.90
2023-03-25T02:47:51.982Z,99.90
2023-03-25T02:50:25.851Z,99.90
2023-03-25T02:52:59.658Z,99.90
2023-03-25T02:55:34.080Z,99.90
2023-03-25T02:58:09.612Z,99.90
2023-03-25T03:00:40.454Z,99.90
2023-03-25T03:03:11.383Z,99.90
2023-03-25T03:05:44.582Z,99.90
2023-03-25T03:08:26.911Z,99.90
2023-03-25T03:11:05.614Z,99.90
2023-03-25T03:13:46.902Z,99.90
2023-03-25T03:16:25.344Z,99.90
2023-03-25T03:19:05.564Z,99.90
2023-03-25T03:21:42.136Z,99.90
2023-03-25T03:24:18.614Z,99.90
2023-03-25T03:26:56.706Z,99.90
2023-03-25T03:29:30.615Z,99.90
2023-03-25T03:32:06.050Z,99.90
2023-03-25T03:34:43.568Z,99.90
2023-03-25T03:37:16.344Z,99.90
2023-03-25T03:39:49.825Z,99.90
2023-03-25T03:42:26.707Z,99.90
2023-03-25T03:45:01.143Z,99.90
2023-03-25T03:47:34.862Z,99.90
2023-03-25T03:50:09.548Z,99.90
2023-03-25T03:52:43.470Z,99.90
2023-03-25T03:55:16.875Z,99.90
2023-03-25T03:57:53.849Z,99.90
2023-03-25T04:00:28.375Z,99.90
2023-03-25T04:03:05.118Z,99.90
2023-03-25T04:05:38.570Z,99.90
2023-03-25T04:08:15.128Z,99.90
2023-03-25T04:10:53.020Z,99.90
2023-03-25T04:13:27.431Z,99.90
2023-03-25T04:16:00.759Z,99.90
2023-03-25T04:18:34.224Z,99.90
2023-03-25T04:21:04.554Z,99.90
2023-03-25T04:23:35.232Z,99.90
2023-03-25T04:26:05.190Z,99.90
2023-03-25T04:28:37.359Z,99.90
2023-03-25T04:31:15.857Z,99.90
2023-03-25T04:33:49.156Z,99.90
2023-03-25T04:36:20.535Z,99.90
2023-03-25T04:38:50.435Z,99.90
2023-03-25T04:41:20.363Z,99.90
2023-03-25T04:43:52.213Z,99.90
2023-03-25T04:46:22.256Z,99.90
2023-03-25T04:48:54.280Z,99.90
2023-03-25T04:51:24.510Z,99.90
2023-03-25T04:53:54.735Z,99.90
2023-03-25T04:56:24.755Z,99.90
2023-03-25T04:58:56.705Z,99.90
2023-03-25T05:01:32.479Z,99.90
2023-03-25T05:04:06.355Z,99.90
2023-03-25T05:06:38.843Z,99.90
2023-03-25T05:09:10.336Z,99.90
2023-03-25T05:11:42.258Z,99.90
2023-03-25T05:14:15.362Z,99.90
2023-03-25T05:16:45.684Z,99.90
2023-03-25T05:19:16.897Z,99.90
2023-03-25T05:21:48.960Z,99.90
2023-03-25T05:24:18.868Z,99.90
2023-03-25T05:26:48.699Z,99.90
2023-03-25T05:29:20.449Z,99.90
2023-03-25T05:31:50.714Z,99.90
2023-03-25T05:34:21.201Z,99.90
2023-03-25T05:36:50.905Z,99.90
2023-03-25T05:39:20.878Z,99.90
2023-03-25T05:41:50.938Z,99.90
2023-03-25T05:44:22.178Z,99.90
2023-03-25T05:46:51.889Z,99.90
2023-03-25T05:49:22.624Z,99.90
2023-03-25T05:51:55.314Z,99.90
2023-03-25T05:54:29.016Z,99.90
2023-03-25T05:56:59.759Z,99.90
2023-03-25T05:59:34.070Z,99.90
2023-03-25T06:02:03.885Z,99.90
2023-03-25T06:04:38.288Z,99.90
2023-03-25T06:07:14.560Z,99.90
2023-03-25T06:09:46.525Z,99.90
2023-03-25T06:12:17.361Z,99.90
2023-03-25T06:14:54.506Z,99.90
2023-03-25T06:17:25.104Z,99.90
2023-03-25T06:19:54.993Z,99.90
2023-03-25T06:22:25.211Z,99.90
2023-03-25T06:24:55.117Z,99.90
2023-03-25T06:27:25.139Z,99.90
2023-03-25T06:29:57.001Z,99.90
2023-03-25T06:32:27.847Z,99.90
2023-03-25T06:34:58.465Z,99.90
2023-03-25T06:37:28.814Z,99.90
2023-03-25T06:40:00.442Z,99.90
2023-03-25T06:42:32.003Z,99.90
2023-03-25T06:45:21.704Z,99.90
2023-03-25T06:48:05.921Z,99.90
2023-03-25T06:50:36.752Z,99.90
2023-03-25T06:53:06.910Z,99.90
2023-03-25T06:55:37.591Z,99.90
2023-03-25T06:58:07.422Z,99.90
2023-03-25T07:00:39.497Z,99.90
2023-03-25T07:03:09.799Z,99.90
2023-03-25T07:05:39.577Z,99.90
2023-03-25T07:08:09.847Z,99.90
2023-03-25T07:10:39.664Z,99.90
2023-03-25T07:13:10.703Z,99.90
2023-03-25T07:15:43.278Z,99.90
2023-03-25T07:18:13.187Z,99.90
2023-03-25T07:20:46.326Z,99.90
2023-03-25T07:23:19.987Z,99.90
2023-03-25T07:25:50.581Z,99.90
2023-03-25T07:28:21.253Z,99.90
2023-03-25T07:30:54.565Z,99.90
2023-03-25T07:33:28.558Z,99.90
2023-03-25T07:35:58.513Z,99.90
2023-03-25T07:38:28.466Z,99.90
2023-03-25T07:40:59.415Z,99.90
2023-03-25T07:43:30.564Z,99.90
2023-03-25T07:46:14.430Z,99.90
2023-03-25T07:48:44.513Z,99.90
2023-03-25T07:51:14.542Z,99.90
2023-03-25T07:53:45.775Z,99.90
2023-03-25T07:56:17.140Z,99.90
2023-03-25T07:58:47.359Z,99.90
2023-03-25T08:01:19.107Z,99.90
2023-03-25T08:03:49.157Z,99.90
2023-03-25T08:06:19.242Z,99.90
2023-03-25T08:08:48.853Z,99.90
2023-03-25T08:11:18.565Z,99.90
2023-03-25T08:13:48.681Z,99.90
2023-03-25T08:16:20.289Z,99.90
2023-03-25T08:18:53.223Z,99.90
2023-03-25T08:21:25.682Z,99.90
2023-03-25T08:23:58.780Z,99.90
2023-03-25T08:26:28.887Z,99.90
2023-03-25T08:28:59.066Z,99.90
2023-03-25T08:31:32.038Z,99.90
2023-03-25T08:34:02.848Z,99.80
2023-03-25T08:36:33.356Z,99.60
2023-03-25T08:39:08.137Z,99.80
2023-03-25T08:41:40.611Z,99.60
2023-03-25T08:44:11.928Z,99.10
2023-03-25T08:46:43.804Z,98.80
2023-03-25T08:49:13.693Z,98.50
2023-03-25T08:51:43.809Z,98.50
2023-03-25T08:54:13.826Z,98.40
2023-03-25T08:56:43.745Z,97.80
2023-03-25T08:59:14.371Z,98.50
2023-03-25T09:01:46.183Z,98.00
2023-03-25T09:04:17.073Z,97.90
2023-03-25T09:07:10.757Z,97.90
2023-03-25T09:09:38.205Z,97.70
2023-03-25T09:12:09.337Z,97.10
2023-03-25T09:14:39.451Z,96.70
2023-03-25T09:17:11.424Z,95.70
2023-03-25T09:19:41.433Z,95.80
2023-03-25T09:22:11.449Z,95.80
2023-03-25T09:24:41.360Z,95.60
2023-03-25T09:27:11.791Z,96.60
2023-03-25T09:29:42.012Z,96.80
2023-03-25T09:32:15.409Z,96.10
2023-03-25T09:34:45.311Z,95.50
2023-03-25T09:37:15.438Z,95.10
2023-03-25T09:39:45.237Z,93.70
2023-03-25T09:42:39.869Z,93.40
2023-03-25T09:45:22.647Z,93.20
2023-03-25T09:48:00.996Z,93.20
2023-03-25T09:50:33.232Z,92.10
2023-03-25T09:53:07.556Z,90.80
2023-03-25T09:55:43.297Z,89.30
2023-03-25T09:58:30.005Z,89.00
2023-03-25T10:01:07.413Z,86.80
2023-03-25T10:03:50.212Z,86.10
2023-03-25T10:06:21.567Z,89.30
2023-03-25T10:09:04.409Z,85.80
2023-03-25T10:11:39.629Z,85.40
2023-03-25T10:14:14.158Z,89.20
2023-03-25T10:16:58.395Z,88.00
2023-03-25T10:19:39.567Z,84.00
2023-03-25T10:22:14.380Z,86.70
2023-03-25T10:24:50.572Z,88.30
2023-03-25T10:27:24.578Z,90.30
2023-03-25T10:29:59.988Z,90.20
2023-03-25T10:32:36.731Z,88.50
2023-03-25T10:35:14.287Z,87.50
2023-03-25T10:37:45.333Z,86.20
2023-03-25T10:40:24.351Z,82.00
2023-03-25T10:43:08.200Z,80.40
2023-03-25T10:45:39.800Z,79.80
2023-03-25T10:48:16.011Z,82.50
2023-03-25T10:50:48.356Z,81.90
2023-03-25T10:53:23.236Z,82.50
2023-03-25T10:55:58.760Z,79.20
2023-03-25T10:58:28.915Z,81.60
2023-03-25T11:00:59.021Z,79.40
2023-03-25T11:03:34.777Z,79.80
2023-03-25T11:06:07.022Z,78.90
2023-03-25T11:08:37.131Z,76.50
2023-03-25T11:11:08.909Z,73.80
2023-03-25T11:13:38.907Z,73.50
2023-03-25T11:16:09.987Z,76.20
2023-03-25T11:18:42.429Z,73.60
2023-03-25T11:21:16.632Z,71.80
2023-03-25T11:23:49.850Z,70.50
2023-03-25T11:26:24.248Z,71.50
2023-03-25T11:28:56.517Z,69.40
2023-03-25T11:31:28.538Z,69.30
2023-03-25T11:34:19.636Z,68.10
2023-03-25T11:36:58.412Z,66.80
2023-03-25T11:39:32.837Z,67.40
2023-03-25T11:42:11.658Z,67.20
2023-03-25T11:44:42.497Z,67.20
2023-03-25T11:47:14.260Z,65.30
2023-03-25T11:49:44.071Z,61.40
2023-03-25T11:52:22.950Z,62.80
2023-03-25T11:54:55.981Z,62.50
2023-03-25T11:57:29.567Z,63.00
2023-03-25T12:00:12.812Z,63.80
2023-03-25T12:02:43.471Z,65.20
2023-03-25T12:05:17.344Z,63.80
2023-03-25T12:07:50.526Z,64.00
2023-03-25T12:10:26.802Z,61.30
2023-03-25T12:13:07.467Z,61.70
2023-03-25T12:15:42.819Z,60.50
2023-03-25T12:18:31.487Z,60.20
2023-03-25T12:21:08.652Z,57.80
2023-03-25T12:23:48.290Z,57.40
2023-03-25T12:26:21.373Z,60.40
2023-03-25T12:29:14.429Z,62.70
2023-03-25T12:31:59.505Z,64.30
2023-03-25T12:34:42.422Z,61.50
2023-03-25T12:37:27.699Z,59.80
2023-03-25T12:40:19.066Z,60.10
2023-03-25T12:42:58.959Z,60.40
2023-03-25T12:45:48.866Z,62.00
2023-03-25T12:48:39.746Z,63.20
2023-03-25T12:51:16.965Z,63.20
2023-03-25T12:53:57.850Z,63.70
2023-03-25T12:56:45.362Z,65.20
2023-03-25T12:59:36.754Z,65.80
2023-03-25T13:02:17.796Z,62.00
2023-03-25T13:07:32.547Z,58.30
2023-03-25T13:10:09.892Z,53.80
2023-03-25T13:12:43.903Z,55.60
2023-03-25T13:15:26.315Z,56.00
2023-03-25T13:18:01.778Z,54.90
2023-03-25T13:20:37.107Z,54.50
2023-03-25T13:23:08.889Z,52.10
2023-03-25T13:25:52.387Z,52.90
2023-03-25T13:28:26.193Z,51.70
2023-03-25T13:30:58.667Z,50.70
2023-03-25T13:33:33.405Z,50.80
2023-03-25T13:36:12.117Z,51.90
2023-03-25T13:38:46.322Z,51.30
2023-03-25T13:41:24.441Z,50.70
2023-03-25T13:44:03.977Z,51.00
2023-03-25T13:46:39.827Z,50.40
2023-03-25T13:49:18.436Z,51.80
2023-03-25T13:51:48.356Z,53.20
2023-03-25T13:54:25.198Z,51.60
2023-03-25T13:57:39.895Z,54.10
2023-03-25T14:00:37.178Z,58.40
2023-03-25T14:03:50.900Z,60.40
2023-03-25T14:06:57.927Z,62.60
2023-03-25T14:09:56.969Z,65.60
2023-03-25T14:12:32.940Z,65.60
2023-03-25T14:15:06.937Z,63.10
2023-03-25T14:17:42.143Z,61.90
2023-03-25T14:20:20.393Z,63.30
2023-03-25T14:22:50.514Z,66.60
2023-03-25T14:25:30.044Z,69.00
2023-03-25T14:28:00.577Z,71.90
2023-03-25T14:30:32.242Z,71.00
2023-03-25T14:33:06.063Z,70.60
2023-03-25T14:35:52.607Z,71.70
2023-03-25T14:38:53.074Z,74.70
2023-03-25T14:42:00.882Z,77.80
2023-03-25T14:44:33.326Z,80.90
2023-03-25T14:47:26.243Z,77.80
2023-03-25T14:50:06.763Z,75.10
2023-03-25T14:52:44.165Z,74.60
2023-03-25T14:55:21.456Z,74.40
2023-03-25T14:57:52.989Z,75.00
2023-03-25T15:00:29.550Z,74.00
2023-03-25T15:03:04.736Z,74.00
2023-03-25T15:05:38.358Z,74.20
2023-03-25T15:08:17.961Z,78.60
2023-03-25T15:10:53.917Z,84.80
2023-03-25T15:13:32.616Z,89.90
2023-03-25T15:16:05.234Z,91.70
2023-03-25T15:19:02.151Z,92.70
2023-03-25T15:22:11.650Z,93.70
2023-03-25T15:24:42.939Z,95.10
2023-03-25T15:27:23.916Z,94.80
2023-03-25T15:30:03.973Z,94.80
2023-03-25T15:32:54.961Z,95.50
2023-03-25T15:35:57.672Z,95.70
2023-03-25T15:38:51.734Z,96.10
2023-03-25T15:42:02.102Z,96.70
2023-03-25T15:44:58.731Z,97.60
2023-03-25T15:47:55.115Z,98.20
2023-03-25T15:50:37.688Z,98.80
2023-03-25T15:53:46.920Z,99.40
2023-03-25T15:56:22.972Z,99.90
2023-03-25T15:58:57.189Z,99.90
2023-03-25T16:01:31.849Z,99.90
2023-03-25T16:04:08.293Z,99.90
2023-03-25T16:06:44.760Z,99.90
2023-03-25T16:09:19.984Z,99.90
2023-03-25T16:11:53.278Z,99.90
2023-03-25T16:14:24.840Z,99.70
2023-03-25T16:16:57.493Z,98.70
2023-03-25T16:19:35.516Z,98.00
2023-03-25T16:22:13.021Z,97.40
2023-03-25T16:24:43.756Z,97.10
2023-03-25T16:27:21.863Z,97.40
2023-03-25T16:29:53.640Z,98.10
2023-03-25T16:32:28.637Z,99.00
2023-03-25T16:34:58.560Z,96.40
2023-03-25T16:37:28.570Z,97.70
2023-03-25T16:40:00.537Z,99.20
2023-03-25T16:42:36.618Z,98.90
2023-03-25T16:45:07.625Z,99.90
2023-03-25T16:47:38.121Z,99.90
2023-03-25T16:50:12.061Z,99.90
2023-03-25T16:52:42.388Z,99.90
2023-03-25T16:55:33.525Z,99.90
2023-03-25T16:58:18.878Z,99.90
2023-03-25T17:00:52.214Z,99.90
2023-03-25T17:03:42.024Z,98.90
2023-03-25T17:06:23.238Z,98.60
2023-03-25T17:08:54.798Z,98.50
2023-03-25T17:11:28.422Z,98.50
2023-03-25T17:14:03.007Z,99.00
2023-03-25T17:16:35.588Z,99.00
2023-03-25T17:19:07.350Z,98.60
2023-03-25T17:21:41.766Z,98.40
2023-03-25T17:24:25.411Z,98.40
2023-03-25T17:27:07.809Z,98.80
2023-03-25T17:29:52.538Z,99.40
2023-03-25T17:32:24.191Z,99.50
2023-03-25T17:35:09.797Z,99.60
2023-03-25T17:37:40.327Z,99.30
2023-03-25T17:40:13.220Z,99.70
2023-03-25T17:42:44.360Z,99.90
2023-03-25T17:45:19.715Z,99.60
2023-03-25T17:47:50.478Z,99.30
2023-03-25T17:50:25.799Z,98.80
2023-03-25T17:52:55.900Z,98.60
2023-03-25T17:55:25.935Z,98.70
2023-03-25T17:57:56.863Z,98.90
2023-03-25T18:00:28.715Z,99.20
2023-03-25T18:03:00.393Z,99.70
2023-03-25T18:08:05.633Z,98.00
2023-03-25T18:10:37.589Z,98.10
2023-03-25T18:13:07.927Z,98.40
2023-03-25T18:15:40.761Z,98.40
2023-03-25T18:18:16.443Z,99.20
2023-03-25T18:20:47.989Z,99.10
2023-03-25T18:23:17.913Z,99.90
2023-03-25T18:25:48.341Z,99.90
2023-03-25T18:28:18.561Z,99.90
2023-03-25T18:30:54.738Z,99.80
2023-03-25T18:33:26.082Z,99.90
2023-03-25T18:35:56.956Z,98.20
2023-03-25T18:38:29.077Z,99.20
2023-03-25T18:43:28.806Z,97.00
2023-03-25T18:46:00.434Z,97.90
2023-03-25T18:48:30.971Z,97.90
2023-03-25T18:51:02.948Z,97.40
2023-03-25T18:53:32.756Z,97.60
2023-03-25T18:56:04.792Z,97.50
2023-03-25T18:58:36.605Z,97.60
2023-03-25T19:01:10.826Z,97.80
2023-03-25T19:03:41.149Z,98.10
2023-03-25T19:06:16.487Z,98.20
2023-03-25T19:08:47.211Z,98.50
2023-03-25T19:11:21.579Z,98.10
2023-03-25T19:13:53.280Z,98.70
2023-03-25T19:16:28.679Z,98.70
2023-03-25T19:18:59.849Z,98.90
2023-03-25T19:21:30.195Z,98.70
2023-03-25T19:24:00.131Z,98.70
2023-03-25T19:26:32.352Z,98.50
2023-03-25T19:29:02.273Z,98.10
2023-03-25T19:31:34.427Z,98.40
2023-03-25T19:34:04.569Z,98.60
2023-03-25T19:36:35.805Z,98.40
2023-03-25T19:39:06.543Z,98.80
2023-03-25T19:41:42.830Z,98.60
2023-03-25T19:44:14.893Z,98.60
2023-03-25T19:46:47.054Z,98.10
2023-03-25T19:49:25.906Z,98.30
2023-03-25T19:52:03.280Z,98.00
2023-03-25T19:54:33.298Z,98.30
2023-03-25T19:57:03.508Z,98.90
2023-03-25T19:59:33.726Z,99.20
2023-03-25T20:02:05.380Z,99.50
2023-03-25T20:04:37.330Z,99.40
2023-03-25T20:07:07.460Z,99.10
2023-03-25T20:09:41.449Z,99.10
2023-03-25T20:12:12.173Z,99.00
2023-03-25T20:14:42.012Z,98.60
2023-03-25T20:17:13.755Z,98.30
2023-03-25T20:19:43.988Z,98.40
2023-03-25T20:22:25.014Z,98.50
2023-03-25T20:24:57.026Z,99.00
2023-03-25T20:27:28.366Z,99.70
2023-03-25T20:29:58.917Z,99.70
2023-03-25T20:32:40.561Z,99.70
2023-03-25T20:35:13.394Z,99.50
2023-03-25T20:37:44.741Z,99.00
2023-03-25T20:40:17.941Z,98.80
2023-03-25T20:42:52.735Z,98.80
2023-03-25T20:45:23.307Z,98.40
2023-03-25T20:47:57.887Z,98.00
2023-03-25T20:50:27.896Z,98.00
2023-03-25T20:53:00.686Z,98.00
2023-03-25T20:55:31.026Z,97.80
2023-03-25T20:58:01.340Z,98.10
2023-03-25T21:00:31.704Z,98.00
2023-03-25T21:03:07.135Z,98.20
2023-03-25T21:05:41.318Z,98.40
2023-03-25T21:08:11.646Z,98.50
2023-03-25T21:10:49.021Z,98.30
2023-03-25T21:13:19.033Z,98.20
2023-03-25T21:15:48.963Z,98.50
2023-03-25T21:18:20.625Z,98.50
2023-03-25T21:20:52.493Z,98.70
2023-03-25T21:23:28.857Z,98.80
2023-03-25T21:26:00.423Z,99.00
2023-03-25T21:28:31.754Z,99.70
2023-03-25T21:31:05.760Z,99.50
2023-03-25T21:33:39.356Z,99.40
2023-03-25T21:36:11.138Z,99.90
2023-03-25T21:38:41.338Z,99.90
2023-03-25T21:41:12.468Z,99.90
2023-03-25T21:43:44.027Z,99.90
2023-03-25T21:46:14.784Z,99.90
2023-03-25T21:48:49.583Z,99.80
2023-03-25T21:51:20.737Z,99.50
2023-03-25T21:53:50.855Z,99.10
2023-03-25T21:56:22.096Z,99.40
2023-03-25T21:58:52.148Z,99.40
2023-03-25T22:01:28.897Z,99.60
2023-03-25T22:04:02.108Z,99.60
2023-03-25T22:06:36.189Z,99.60
2023-03-25T22:09:08.494Z,99.60
2023-03-25T22:11:39.406Z,99.90
2023-03-25T22:14:10.242Z,99.90
2023-03-25T22:16:40.477Z,99.90
2023-03-25T22:19:14.163Z,99.80
2023-03-25T22:21:44.159Z,99.70
2023-03-25T22:24:14.456Z,99.90
2023-03-25T22:26:44.635Z,99.90
2023-03-25T22:29:14.829Z,99.90
2023-03-25T22:31:45.062Z,99.90
2023-03-25T22:34:17.428Z,99.90
2023-03-25T22:36:51.424Z,99.90
2023-03-25T22:39:23.596Z,99.90
2023-03-25T22:41:53.964Z,99.90
2023-03-25T22:44:24.566Z,99.90
2023-03-25T22:46:54.887Z,99.90
2023-03-25T22:49:26.744Z,99.90
2023-03-25T22:51:57.071Z,99.90
2023-03-25T22:54:27.337Z,99.90
2023-03-25T22:56:57.630Z,99.90
2023-03-25T22:59:27.780Z,99.90
2023-03-25T23:01:58.110Z,99.90
2023-03-25T23:04:29.604Z,99.90
2023-03-25T23:07:07.703Z,99.90
2023-03-25T23:09:45.923Z,99.90
2023-03-25T23:14:52.408Z,99.30
2023-03-25T23:17:22.543Z,99.30
2023-03-25T23:19:54.696Z,99.40
2023-03-25T23:22:25.642Z,99.10
2023-03-25T23:24:56.381Z,99.10
2023-03-25T23:27:27.524Z,98.80
2023-03-25T23:29:58.870Z,98.80
2023-03-25T23:32:29.322Z,98.80
2023-03-25T23:35:03.823Z,98.70
2023-03-25T23:37:35.357Z,98.50
2023-03-25T23:40:07.742Z,98.40
2023-03-25T23:42:37.644Z,98.40
2023-03-25T23:45:08.284Z,98.40
2023-03-25T23:47:38.213Z,98.20
2023-03-25T23:50:14.757Z,98.50
2023-03-25T23:52:44.673Z,98.00
2023-03-25T23:55:15.717Z,97.90
2023-03-25T23:57:45.735Z,97.80
